Aérodrome :
LOGIN :

S'inscrire | Disclaimer

   EN    FR    IT 

 










Légende :    VFR   VFR Marginal   IFR   IFR Intensif   IFR Très Intensif
Visi : 
Plafond : 
>= 8 km
>= 3000ft
5 à 8 km
1000 à 3000 ft
1500m à 5 km
500 à 1000 ft
800 à 1500m
200 à 500 ft
< 800m
< 200 ft
Symboles :   Orages  Brouillard  Fortes neiges  Fortes précipitations  Vent > 20 kt
SIGMETs :   Divers  Orages  Givrage  Turbulence  Onde Orograph.  Cendres Volcan.







- Altitude de l'aérodrome : 53 ft
- Code IATA : HAM


EDDH - Hamburg

DERNIER METAR :
  • 180620Z 23015KT CAVOK 05/03 Q1013 BECMG 24015G25KT

METARs EXPIRÉS :
  • 180550Z 23015KT CAVOK 06/03 Q1014 BECMG 24015G25KT
  • 180520Z 23015KT 9999 FEW044 BKN060 06/03 Q1014 NOSIG
  • 180450Z 23013KT CAVOK 06/03 Q1014 NOSIG
  • 180420Z 23015KT 200V260 CAVOK 06/02 Q1015 NOSIG
  • 180350Z 22014KT CAVOK 06/03 Q1015 NOSIG

TAF TAF EDDH
Valide du 18 à 06h jusqu'au 19 à 12h UTC


180500Z 1806/1912 23012KT 9999 SCT030
BECMG 1807/1809 25015G30KT
TEMPO 1809/1814 SHRA BKN012CB
PROB40
TEMPO 1809/1814 3500 SHRAGS
BECMG 1815/1817 25012KT
TEMPO 1900/1912 25015G25KT SHRA BKN012CB
PROB30
TEMPO 1903/1912 27020G35KT 2500 TSRAGS
Pas de NOTAMs connus pour ce terrain.



MET'MAP, la Météo Aéronautique d'un coup d'oeil ! - Copyright ORBIFLY Décembre 2007 - Disclaimer

ORBIFLY MET'MAP TEAM :

Programmation & Développement : Alexandra Zaïnal
Conception & Développement : Baudouin d'Aumeries
Co-Programmation & Développement : Marc-Olivier Méhu
Soutien technique & logistique : Manuel Goepfert

Contact : metmap@orbifly.com




SOURCES & CREDITS :

   NOAA